Time;durP1;ratioP1;P1;durP2;ratioP2;P2;SDS_P1;SDS_P2;PMS_P1;PMS_P2;Temp;Humidity;BMP_temperature;BMP_pressure;BME280_temperature;BME280_humidity;BME280_pressure;Samples;Min_cycle;Max_cycle;Signal;HPM_P1;HPM_P2
2022/12/11 00:01:37;;;;;;;30.90;15.33;;;;;;;-0.41;100.00;100092.42;5234210;54;1142984;-68
2022/12/11 00:06:43;;;;;;;37.60;18.30;;;;;;;-0.49;100.00;100091.44;5175895;55;1143139;-72
2022/12/11 00:11:49;;;;;;;33.40;16.67;;;;;;;-0.48;100.00;100082.75;5166359;55;1142773;-71
2022/12/11 00:16:55;;;;;;;46.10;19.60;;;;;;;-0.45;100.00;100072.66;5140461;55;1142774;-70
2022/12/11 00:22:01;;;;;;;45.50;18.80;;;;;;;-0.41;100.00;100071.19;5177883;55;1142959;-71
2022/12/11 00:27:06;;;;;;;33.55;15.50;;;;;;;-0.39;100.00;100070.68;5127263;55;1143116;-69
2022/12/11 00:32:13;;;;;;;28.73;14.90;;;;;;;-0.37;100.00;100064.13;5114945;55;1142975;-72
2022/12/11 00:37:20;;;;;;;34.86;15.80;;;;;;;-0.40;100.00;100060.34;5117064;55;1143026;-71
2022/12/11 00:42:25;;;;;;;35.75;15.83;;;;;;;-0.41;100.00;100063.39;5114967;54;1143062;-71
2022/12/11 00:47:31;;;;;;;38.90;18.37;;;;;;;-0.40;100.00;100060.34;5198765;54;1142999;-72
2022/12/11 00:52:37;;;;;;;27.37;13.35;;;;;;;-0.42;100.00;100061.70;5178236;54;1142991;-72
2022/12/11 00:57:43;;;;;;;22.00;12.57;;;;;;;-0.45;100.00;100055.33;5177449;54;1143086;-67
2022/12/11 01:02:50;;;;;;;26.27;13.97;;;;;;;-0.46;100.00;100056.23;5204056;55;1143089;-71
2022/12/11 01:07:56;;;;;;;24.83;13.27;;;;;;;-0.48;100.00;100057.22;5260644;54;1142973;-68
2022/12/11 01:13:05;;;;;;;24.80;13.03;;;;;;;-0.43;100.00;100051.38;5267086;54;1142985;-68
2022/12/11 01:18:14;;;;;;;24.92;12.37;;;;;;;-0.48;100.00;100052.03;5267681;54;1142901;-69
2022/12/11 01:23:21;;;;;;;24.50;12.05;;;;;;;-0.52;100.00;100055.19;5291782;54;1142816;-70
2022/12/11 01:28:28;;;;;;;22.03;11.70;;;;;;;-0.47;100.00;100055.02;5133900;54;1142981;-70
2022/12/11 01:33:34;;;;;;;19.90;10.98;;;;;;;-0.53;100.00;100057.39;5198970;54;1142845;-70
2022/12/11 01:38:40;;;;;;;23.57;9.90;;;;;;;-0.56;100.00;100059.26;5213203;54;1143051;-70
2022/12/11 01:44:08;;;;;;;24.50;10.33;;;;;;;-0.61;100.00;100054.72;5203311;55;1140950;-71
2022/12/11 01:49:17;;;;;;;18.35;9.63;;;;;;;-0.64;100.00;100051.79;5202848;55;1143470;-68
2022/12/11 01:54:24;;;;;;;21.10;8.80;;;;;;;-0.68;100.00;100046.77;5203300;55;1140889;-71
2022/12/11 01:59:33;;;;;;;18.53;9.80;;;;;;;-0.72;100.00;100040.39;5223812;55;1140783;-70
2022/12/11 02:04:41;;;;;;;22.03;10.47;;;;;;;-0.70;100.00;100049.42;5198480;55;1140825;-68
2022/12/11 02:09:48;;;;;;;24.10;11.00;;;;;;;-0.67;100.00;100045.41;5146847;55;1142844;-70
2022/12/11 02:15:17;;;;;;;29.57;11.07;;;;;;;-0.64;100.00;100050.48;5189307;55;1143037;-70
2022/12/11 02:20:54;;;;;;;19.57;9.80;;;;;;;-0.61;100.00;100055.54;5203256;55;1143025;-68
2022/12/11 02:26:54;;;;;;;16.73;8.40;;;;;;;-0.60;100.00;100046.84;5237534;54;1140923;-70
2022/12/11 02:32:05;;;;;;;17.03;8.43;;;;;;;-0.63;100.00;100038.35;5015148;56;1141123;-68
2022/12/11 02:37:15;;;;;;;14.03;7.93;;;;;;;-0.67;100.00;100037.62;5113957;55;1141150;-69
2022/12/11 02:42:27;;;;;;;19.20;10.35;;;;;;;-0.66;100.00;100034.12;5165668;55;1140814;-69
2022/12/11 02:47:33;;;;;;;14.73;9.07;;;;;;;-0.68;100.00;100031.19;5127141;55;1142840;-73
2022/12/11 02:52:43;;;;;;;20.43;9.77;;;;;;;-0.67;100.00;100027.69;5203763;55;1140899;-72
2022/12/11 02:58:13;;;;;;;14.60;7.67;;;;;;;-0.69;100.00;100014.76;5223702;55;1140801;-69
2022/12/11 03:03:19;;;;;;;10.18;7.03;;;;;;;-0.70;100.00;100016.96;5270320;54;1140983;-67
2022/12/11 03:08:28;;;;;;;16.85;7.78;;;;;;;-0.79;100.00;100013.44;5293929;54;1140770;-71
2022/12/11 03:13:34;;;;;;;13.68;7.35;;;;;;;-0.81;100.00;100011.35;5314655;54;1140749;-69
2022/12/11 03:19:17;;;;;;;10.67;6.00;;;;;;;-0.78;100.00;100020.33;5293799;54;1140838;-71
2022/12/11 03:24:37;;;;;;;12.90;6.97;;;;;;;-0.75;100.00;100017.59;5292810;54;1141016;-72
2022/12/11 03:29:53;;;;;;;14.03;8.23;;;;;;;-0.75;100.00;100012.39;5203653;55;1140786;-71
2022/12/11 03:35:03;;;;;;;14.43;8.63;;;;;;;-0.72;100.00;100018.77;5224058;54;1140891;-71
2022/12/11 03:40:14;;;;;;;11.97;6.77;;;;;;;-0.74;100.00;100012.78;5303353;54;1140815;-71
2022/12/11 03:45:23;;;;;;;14.47;7.37;;;;;;;-0.79;100.00;100018.18;5300183;54;1140798;-70
2022/12/11 03:50:31;;;;;;;14.10;7.87;;;;;;;-0.82;100.00;100025.23;5304513;54;1140902;-68
2022/12/11 03:55:40;;;;;;;14.00;8.43;;;;;;;-0.81;100.00;100029.08;5325202;54;1140798;-67
2022/12/11 04:00:45;;;;;;;15.70;8.60;;;;;;;-0.82;100.00;100024.78;5281669;54;1140920;-73
2022/12/11 04:05:54;;;;;;;19.47;9.73;;;;;;;-0.81;100.00;100032.12;5247558;54;1140819;-68
2022/12/11 04:16:25;;;;;;;29.93;13.77;;;;;;;-0.71;100.00;100017.86;5289069;54;1140958;-70
2022/12/11 04:26:55;;;;;;;17.33;8.40;;;;;;;-0.72;100.00;100026.11;5208454;54;1143037;-69
2022/12/11 04:32:00;;;;;;;23.43;12.00;;;;;;;-0.71;100.00;100029.55;5186997;55;1141088;-67
2022/12/11 04:37:07;;;;;;;26.30;12.80;;;;;;;-0.78;100.00;100023.77;5216908;54;1142894;-71
2022/12/11 04:42:13;;;;;;;30.87;11.60;;;;;;;-0.73;100.00;100025.71;5293007;54;1142807;-72
2022/12/11 04:47:19;;;;;;;24.33;12.83;;;;;;;-0.68;100.00;100019.50;5293655;54;1142783;-67
2022/12/11 04:52:24;;;;;;;19.77;11.47;;;;;;;-0.69;100.00;99998.33;5315059;54;1143094;-71
2022/12/11 04:57:30;;;;;;;23.00;11.68;;;;;;;-0.65;100.00;99989.52;5272932;54;1140986;-71
2022/12/11 05:02:41;;;;;;;23.85;13.58;;;;;;;-0.67;100.00;99987.44;5225854;54;1140852;-72
2022/12/11 05:07:46;;;;;;;16.27;8.13;;;;;;;-0.73;100.00;99980.72;5314812;54;1140916;-69
2022/12/11 05:12:52;;;;;;;23.80;10.23;;;;;;;-0.75;100.00;99978.19;5294209;54;1138795;-68
2022/12/11 05:17:58;;;;;;;31.00;13.40;;;;;;;-0.81;100.00;99971.11;5279679;54;1140825;-70
2022/12/11 05:23:03;;;;;;;22.67;11.23;;;;;;;-0.85;100.00;99960.00;5218566;54;1141030;-73
2022/12/11 05:28:09;;;;;;;24.83;11.83;;;;;;;-0.87;100.00;99952.72;5168900;54;1140842;-70
2022/12/11 05:33:17;;;;;;;17.27;9.63;;;;;;;-0.87;100.00;99953.17;5126638;55;1140993;-70
2022/12/11 05:38:23;;;;;;;28.20;13.70;;;;;;;-0.95;100.00;99948.75;5106485;56;1138955;-68
2022/12/11 05:43:32;;;;;;;25.17;14.17;;;;;;;-1.00;100.00;99945.48;5112035;56;1148307;-68
2022/12/11 05:48:40;;;;;;;32.20;15.18;;;;;;;-1.06;100.00;99951.30;5091964;56;1140775;-66
2022/12/11 05:53:49;;;;;;;22.10;11.33;;;;;;;-1.07;100.00;99946.20;5092009;55;1140757;-68
2022/12/11 05:58:55;;;;;;;24.07;12.27;;;;;;;-1.13;100.00;99943.38;5111738;55;1140845;-70
2022/12/11 06:04:03;;;;;;;23.90;12.13;;;;;;;-1.19;100.00;99944.05;5109619;55;1141015;-67
2022/12/11 06:09:14;;;;;;;27.73;13.37;;;;;;;-1.23;100.00;99947.25;5112163;55;1140988;-67
2022/12/11 06:14:19;;;;;;;27.07;14.53;;;;;;;-1.29;100.00;99957.00;5141475;55;1140791;-70
2022/12/11 06:19:26;;;;;;;23.32;14.30;;;;;;;-1.33;100.00;99971.83;5103824;55;1140811;-68
2022/12/11 06:24:31;;;;;;;27.30;12.70;;;;;;;-1.38;100.00;99968.58;5090748;56;1140757;-71
2022/12/11 06:29:37;;;;;;;23.05;11.25;;;;;;;-1.42;100.00;99964.41;5091034;55;1140891;-70
2022/12/11 06:34:44;;;;;;;19.50;11.33;;;;;;;-1.46;100.00;99953.74;5154079;55;1141009;-69
2022/12/11 06:39:50;;;;;;;20.83;10.17;;;;;;;-1.48;100.00;99968.06;5231762;54;1140977;-68
2022/12/11 06:45:02;;;;;;;19.67;10.40;;;;;;;-1.46;100.00;99962.82;5269235;54;1140756;-67
2022/12/11 06:50:04;;;;;;;21.70;10.30;;;;;;;-1.61;100.00;99966.83;5185418;55;1140781;-68
2022/12/11 06:55:10;;;;;;;20.50;10.53;;;;;;;-1.67;100.00;99968.78;5189317;55;1140912;-69
2022/12/11 07:00:17;;;;;;;20.80;11.10;;;;;;;-1.70;100.00;99962.44;5218714;55;1141017;-70
2022/12/11 07:05:22;;;;;;;20.87;10.47;;;;;;;-1.77;100.00;99957.91;5261989;55;1140932;-68
2022/12/11 07:10:28;;;;;;;22.17;10.50;;;;;;;-1.76;100.00;99950.53;5216131;54;1140777;-69
2022/12/11 07:15:34;;;;;;;21.70;12.03;;;;;;;-1.72;100.00;99949.98;5199628;55;1140731;-68
2022/12/11 07:20:40;;;;;;;27.32;13.65;;;;;;;-1.71;100.00;99955.56;5178016;55;1140740;-70
2022/12/11 07:25:46;;;;;;;24.63;12.83;;;;;;;-1.65;100.00;99955.31;5181046;55;1140816;-67
2022/12/11 07:30:52;;;;;;;24.33;13.13;;;;;;;-1.63;100.00;99962.59;5208656;55;1140809;-70
2022/12/11 07:36:03;;;;;;;19.10;10.53;;;;;;;-1.62;100.00;99956.51;5181934;55;1140843;-70
2022/12/11 07:41:14;;;;;;;20.03;11.17;;;;;;;-1.65;100.00;99962.65;5193719;54;1140871;-69
2022/12/11 07:46:23;;;;;;;30.87;15.03;;;;;;;-1.73;100.00;99959.95;5227389;54;1140792;-67
2022/12/11 07:51:32;;;;;;;28.00;13.10;;;;;;;-1.77;100.00;99967.83;5212136;54;1140884;-70
2022/12/11 07:56:38;;;;;;;26.90;12.87;;;;;;;-1.78;100.00;99973.91;5214715;54;1140872;-69
2022/12/11 08:01:44;;;;;;;19.90;10.57;;;;;;;-1.78;100.00;99980.40;5285080;54;1140801;-68
2022/12/11 08:06:50;;;;;;;23.03;11.17;;;;;;;-1.77;100.00;99981.25;5217953;54;1140846;-68
2022/12/11 08:11:56;;;;;;;24.43;11.97;;;;;;;-1.79;100.00;99980.00;5190526;54;1140977;-68
2022/12/11 08:17:02;;;;;;;20.60;10.07;;;;;;;-1.77;100.00;99970.42;5190277;55;1141033;-67
2022/12/11 08:22:08;;;;;;;25.10;11.87;;;;;;;-1.71;100.00;99971.12;5211191;54;1140784;-72
2022/12/11 08:27:13;;;;;;;18.93;10.97;;;;;;;-1.61;100.00;99959.50;5205243;54;1140687;-68
2022/12/11 08:32:19;;;;;;;22.97;12.57;;;;;;;-1.57;100.00;99968.41;5234606;54;1140772;-68
2022/12/11 08:37:25;;;;;;;42.93;24.60;;;;;;;-1.53;100.00;99962.19;5229553;54;1141089;-68
2022/12/11 08:42:30;;;;;;;64.27;29.83;;;;;;;-1.50;100.00;99955.59;5196107;54;1140917;-72
2022/12/11 08:47:37;;;;;;;29.90;14.70;;;;;;;-1.47;100.00;99949.00;5213559;54;1141025;-68
2022/12/11 08:52:43;;;;;;;43.45;19.82;;;;;;;-1.48;100.00;99954.25;5324648;54;1140861;-69
2022/12/11 08:57:49;;;;;;;28.37;14.57;;;;;;;-1.54;100.00;99949.31;5303153;54;1140774;-69
2022/12/11 09:02:57;;;;;;;28.33;14.90;;;;;;;-1.53;100.00;99937.55;5303694;54;1140723;-67
2022/12/11 09:08:02;;;;;;;27.30;13.70;;;;;;;-1.44;100.00;99933.34;5303232;54;1140874;-67
2022/12/11 09:13:08;;;;;;;36.73;16.73;;;;;;;-1.42;100.00;99936.72;5324146;54;1140793;-72
2022/12/11 09:18:14;;;;;;;28.90;14.73;;;;;;;-1.37;100.00;99943.01;5303150;54;1141002;-67
2022/12/11 09:23:20;;;;;;;44.07;19.03;;;;;;;-1.35;100.00;99932.58;5303625;54;1140879;-71
2022/12/11 09:28:26;;;;;;;27.70;13.07;;;;;;;-1.39;100.00;99925.84;5247086;54;1140828;-69
2022/12/11 09:33:32;;;;;;;26.07;12.70;;;;;;;-1.43;100.00;99927.70;5244351;54;1140722;-66
2022/12/11 09:38:38;;;;;;;23.12;13.22;;;;;;;-1.44;100.00;99924.26;5302320;54;1140897;-68
2022/12/11 09:43:48;;;;;;;25.75;13.65;;;;;;;-1.44;100.00;99919.52;5322675;54;1140954;-70
2022/12/11 09:48:55;;;;;;;22.17;13.20;;;;;;;-1.37;100.00;99909.74;5241429;54;1141060;-73
2022/12/11 09:54:04;;;;;;;29.57;13.77;;;;;;;-1.33;100.00;99912.62;5267417;54;1141025;-69
2022/12/11 09:59:39;;;;;;;37.80;20.47;;;;;;;-1.33;100.00;99911.32;5186377;54;1140954;-68
2022/12/11 10:05:11;;;;;;;42.57;18.10;;;;;;;-1.32;100.00;99911.72;5289797;54;1140871;-68
2022/12/11 10:10:53;;;;;;;33.27;17.67;;;;;;;-1.34;100.00;99907.88;5221080;54;1140822;-67
2022/12/11 10:16:30;;;;;;;23.30;13.30;;;;;;;-1.31;100.00;99892.20;5263125;54;1140843;-69
2022/12/11 10:21:42;;;;;;;25.90;12.65;;;;;;;-1.26;100.00;99882.50;5247701;54;1140885;-69
2022/12/11 10:26:52;;;;;;;34.30;17.43;;;;;;;-1.28;100.00;99876.53;5209630;55;1141136;-67
2022/12/11 10:31:59;;;;;;;55.77;24.53;;;;;;;-1.28;100.00;99871.34;5196676;55;1140902;-71
2022/12/11 10:37:05;;;;;;;38.23;19.20;;;;;;;-1.33;100.00;99865.48;5201063;54;1140950;-69
2022/12/11 10:42:19;;;;;;;47.48;18.12;;;;;;;-1.33;100.00;99854.26;5191385;55;1141006;-70
2022/12/11 10:47:26;;;;;;;49.77;21.02;;;;;;;-1.32;100.00;99854.20;5236687;54;1140970;-67
2022/12/11 10:52:38;;;;;;;128.03;41.93;;;;;;;-1.27;100.00;99844.95;5226849;54;1140861;-68
2022/12/11 10:57:44;;;;;;;72.47;24.80;;;;;;;-1.23;100.00;99839.58;5281901;54;1142939;-70
2022/12/11 11:02:50;;;;;;;95.90;33.77;;;;;;;-1.17;100.00;99834.13;5305587;54;1140837;-68
2022/12/11 11:08:22;;;;;;;44.27;17.17;;;;;;;-1.09;100.00;99824.75;5292590;54;1140776;-70
2022/12/11 11:13:31;;;;;;;85.28;30.65;;;;;;;-1.09;100.00;99812.63;5291030;54;1140805;-69
2022/12/11 11:18:37;;;;;;;57.90;21.87;;;;;;;-1.11;100.00;99805.80;5179480;55;1140982;-71
2022/12/11 11:23:44;;;;;;;28.27;14.45;;;;;;;-1.04;100.00;99789.50;5145386;56;1140801;-68
2022/12/11 11:28:56;;;;;;;25.90;12.75;;;;;;;-1.03;100.00;99792.49;5187718;54;1140774;-70
2022/12/11 11:34:09;;;;;;;24.07;11.00;;;;;;;-1.08;100.00;99789.66;5207622;54;1140816;-68
2022/12/11 11:39:34;;;;;;;31.13;14.83;;;;;;;-1.04;100.00;99783.86;5293487;54;1140808;-69
2022/12/11 11:45:12;;;;;;;31.50;17.87;;;;;;;-1.02;100.00;99785.09;5314356;54;1141053;-67
2022/12/11 11:50:25;;;;;;;22.80;10.37;;;;;;;-1.07;100.00;99784.83;5229296;54;1140842;-68
2022/12/11 11:56:21;;;;;;;20.75;9.90;;;;;;;-1.06;100.00;99781.33;5125450;54;1141012;-69
2022/12/11 12:01:27;;;;;;;21.90;9.03;;;;;;;-1.01;100.00;99779.84;5149007;54;1138776;-68
2022/12/11 12:06:53;;;;;;;25.73;11.97;;;;;;;-0.96;100.00;99762.80;5124506;55;1138575;-71
2022/12/11 12:12:08;;;;;;;14.27;8.23;;;;;;;-0.97;100.00;99763.70;5103960;56;1140795;-69
2022/12/11 12:17:37;;;;;;;29.43;13.07;;;;;;;-0.92;100.00;99756.57;5129721;55;1138621;-71
2022/12/11 12:22:53;;;;;;;30.57;13.60;;;;;;;-0.91;100.00;99748.69;5104518;55;1140950;-70
2022/12/11 12:28:43;;;;;;;24.80;11.00;;;;;;;-0.92;100.00;99756.57;5214272;54;1140886;-70
2022/12/11 12:34:22;;;;;;;19.60;11.13;;;;;;;-0.86;100.00;99753.69;5213608;54;1141121;-72
2022/12/11 12:39:35;;;;;;;14.83;7.77;;;;;;;-0.80;100.00;99749.55;5190476;54;1140782;-70
2022/12/11 12:45:09;;;;;;;19.45;9.00;;;;;;;-0.78;100.00;99751.17;5192591;54;1138786;-70
2022/12/11 12:50:23;;;;;;;19.70;10.30;;;;;;;-0.79;100.00;99736.95;5079884;55;1138966;-69
2022/12/11 12:55:33;;;;;;;33.83;15.85;;;;;;;-0.78;100.00;99738.19;5228707;55;1140794;-70
2022/12/11 13:00:45;;;;;;;26.57;12.90;;;;;;;-0.80;100.00;99726.19;5229293;54;1140721;-75
2022/12/11 13:06:04;;;;;;;23.45;11.50;;;;;;;-0.76;100.00;99722.06;5212549;54;1140874;-72
2022/12/11 13:11:13;;;;;;;35.83;15.83;;;;;;;-0.73;100.00;99721.94;5213580;54;1140914;-72
2022/12/11 13:16:25;;;;;;;27.70;12.43;;;;;;;-0.67;100.00;99714.34;5233844;54;1141026;-72
2022/12/11 13:21:35;;;;;;;23.70;10.70;;;;;;;-0.59;100.00;99704.44;5213584;54;1141055;-69
2022/12/11 13:26:42;;;;;;;19.07;8.83;;;;;;;-0.52;100.00;99700.67;5196970;55;1150345;-73
2022/12/11 13:31:52;;;;;;;26.77;12.30;;;;;;;-0.48;100.00;99701.38;5208320;55;1138747;-72
2022/12/11 13:36:59;;;;;;;28.05;13.05;;;;;;;-0.48;100.00;99703.52;5210111;54;1140881;-74
2022/12/11 13:42:13;;;;;;;30.67;13.23;;;;;;;-0.46;100.00;99709.46;5225566;54;1140796;-72
2022/12/11 13:47:19;;;;;;;;;;;;;;;-0.47;100.00;99713.00;5266289;54;1140926;-68
2022/12/11 13:52:27;;;;;;;33.00;13.57;;;;;;;-0.49;100.00;99700.53;5177696;55;974037;-68
2022/12/11 13:57:32;;;;;;;28.23;12.70;;;;;;;-0.49;100.00;99711.37;5174789;54;1138744;-69
2022/12/11 14:02:41;;;;;;;54.27;25.63;;;;;;;-0.51;100.00;99710.14;5127532;55;1140917;-71
2022/12/11 14:07:53;;;;;;;56.60;32.03;;;;;;;-0.51;100.00;99704.11;5203878;55;1140842;-67
2022/12/11 14:13:05;;;;;;;34.87;16.23;;;;;;;-0.47;100.00;99709.56;5188985;55;1140714;-71
2022/12/11 14:18:18;;;;;;;19.07;8.30;;;;;;;-0.45;100.00;99703.81;5189069;55;1140897;-70
2022/12/11 14:23:28;;;;;;;36.90;13.72;;;;;;;-0.50;100.00;99698.84;5189307;55;1138749;-69
2022/12/11 14:28:41;;;;;;;22.33;10.30;;;;;;;-0.50;100.00;99704.05;5107925;54;1140858;-70
2022/12/11 14:33:54;;;;;;;29.77;13.20;;;;;;;-0.53;100.00;99701.58;5093100;55;1140992;-72
2022/12/11 14:39:05;;;;;;;;;;;;;;;-0.55;100.00;99694.31;5130041;55;1141136;-71
2022/12/11 14:44:15;;;;;;;26.13;12.80;;;;;;;-0.53;100.00;99703.33;5198577;55;974188;-71
2022/12/11 14:49:43;;;;;;;26.13;12.23;;;;;;;-0.55;100.00;99698.20;5186895;54;1138629;-71
2022/12/11 14:54:58;;;;;;;25.40;11.90;;;;;;;-0.55;100.00;99703.85;5184073;54;1140994;-68
2022/12/11 15:00:06;;;;;;;30.27;11.87;;;;;;;-0.55;100.00;99706.45;5207710;54;1140864;-71
2022/12/11 15:05:18;;;;;;;28.50;11.70;;;;;;;-0.59;100.00;99705.73;5215163;54;1141246;-69
2022/12/11 15:10:36;;;;;;;56.97;20.33;;;;;;;-0.63;100.00;99702.91;5194392;54;1140956;-72
2022/12/11 15:15:48;;;;;;;42.17;18.03;;;;;;;-0.64;100.00;99710.77;5104911;55;1140968;-70
2022/12/11 15:20:58;;;;;;;30.17;13.95;;;;;;;-0.65;100.00;99710.38;5116768;54;1141149;-71
2022/12/11 15:26:04;;;;;;;40.83;18.40;;;;;;;-0.65;100.00;99719.02;5233690;54;1141078;-70
2022/12/11 15:31:28;;;;;;;47.75;19.65;;;;;;;-0.66;100.00;99708.70;5268002;54;1140800;-68
2022/12/11 15:36:37;;;;;;;54.77;17.43;;;;;;;-0.67;100.00;99705.25;5147002;55;1140868;-70
2022/12/11 15:41:43;;;;;;;52.57;17.77;;;;;;;-0.65;100.00;99709.93;5119169;55;1140856;-69
2022/12/11 15:46:49;;;;;;;29.44;12.96;;;;;;;-0.68;100.00;99700.97;5173933;55;1140806;-70
2022/12/11 15:51:55;;;;;;;35.77;15.33;;;;;;;-0.71;100.00;99704.54;5190415;54;1140799;-71
2022/12/11 15:57:04;;;;;;;31.03;13.17;;;;;;;-0.77;100.00;99706.59;5149505;55;1140824;-69
2022/12/11 16:02:13;;;;;;;43.03;15.43;;;;;;;-0.75;100.00;99713.37;5213387;54;1140818;-73
2022/12/11 16:07:23;;;;;;;37.57;15.47;;;;;;;-0.77;100.00;99711.77;5296524;54;1140829;-72
2022/12/11 16:12:29;;;;;;;27.00;13.03;;;;;;;-0.83;100.00;99706.84;5220986;54;1140872;-69
2022/12/11 16:17:35;;;;;;;23.47;11.00;;;;;;;-0.83;100.00;99705.55;5218516;55;1140805;-69
2022/12/11 16:22:40;;;;;;;26.35;12.95;;;;;;;-0.83;100.00;99710.28;5244118;54;1142980;-68
2022/12/11 16:27:46;;;;;;;23.80;11.80;;;;;;;-0.80;100.00;99707.56;5212791;55;1141262;-72
2022/12/11 16:32:52;;;;;;;19.40;9.45;;;;;;;-0.78;100.00;99707.04;5215016;54;1141002;-69
2022/12/11 16:37:58;;;;;;;19.70;10.97;;;;;;;-0.81;100.00;99698.08;5241092;54;1138662;-74
2022/12/11 16:43:05;;;;;;;18.40;9.33;;;;;;;-0.78;100.00;99691.91;5256817;54;1140863;-72
2022/12/11 16:48:11;;;;;;;25.95;12.75;;;;;;;-0.74;100.00;99685.66;5254403;54;1138725;-70
2022/12/11 16:53:17;;;;;;;55.47;22.10;;;;;;;-0.73;100.00;99681.69;5274520;54;1141029;-72
2022/12/11 16:58:22;;;;;;;41.48;14.70;;;;;;;-0.72;100.00;99679.94;5257911;54;1141155;-70
2022/12/11 17:03:33;;;;;;;33.30;16.20;;;;;;;-0.73;100.00;99680.84;5264404;54;1141260;-71
2022/12/11 17:08:38;;;;;;;39.20;20.83;;;;;;;-0.75;100.00;99682.21;5254959;54;1140908;-74
2022/12/11 17:13:44;;;;;;;34.53;15.93;;;;;;;-0.76;100.00;99680.53;5184490;55;1140772;-70
2022/12/11 17:18:50;;;;;;;24.72;12.55;;;;;;;-0.73;100.00;99677.80;5206931;54;1140954;-68
2022/12/11 17:23:56;;;;;;;31.97;17.87;;;;;;;-0.68;100.00;99678.91;5273979;54;1140857;-69
2022/12/11 17:29:03;;;;;;;75.93;38.70;;;;;;;-0.67;100.00;99681.05;5243652;54;1140821;-74
2022/12/11 17:34:08;;;;;;;59.13;24.60;;;;;;;-0.64;100.00;99681.75;5249260;54;1141057;-68
2022/12/11 17:39:14;;;;;;;55.75;25.35;;;;;;;-0.64;100.00;99675.27;5266056;54;1140840;-72
2022/12/11 17:44:20;;;;;;;43.00;21.07;;;;;;;-0.64;100.00;99683.05;5249633;54;1140965;-70
2022/12/11 17:49:26;;;;;;;130.83;55.53;;;;;;;-0.64;100.00;99685.65;5202129;55;1140994;-73
2022/12/11 17:54:31;;;;;;;158.00;73.67;;;;;;;-0.67;100.00;99680.59;5209650;55;1142893;-70
2022/12/11 17:59:37;;;;;;;164.10;76.73;;;;;;;-0.72;100.00;99687.27;5194383;54;1255163;-69
2022/12/11 18:04:43;;;;;;;195.22;84.13;;;;;;;-0.71;100.00;99681.17;5194479;55;1142991;-71
2022/12/11 18:09:49;;;;;;;588.37;275.83;;;;;;;-0.67;100.00;99688.37;5202395;55;1142949;-68
2022/12/11 18:14:55;;;;;;;868.43;412.72;;;;;;;-0.65;100.00;99686.56;5207098;55;1144837;-71
2022/12/11 18:20:00;;;;;;;208.37;111.90;;;;;;;-0.64;100.00;99698.63;5177177;55;1145008;-71
2022/12/11 18:25:09;;;;;;;105.43;35.98;;;;;;;-0.62;100.00;99702.01;5183862;54;1145276;-74
2022/12/11 18:30:16;;;;;;;144.40;42.87;;;;;;;-0.60;100.00;99693.66;5218477;54;1142859;-71
2022/12/11 18:35:22;;;;;;;131.33;42.23;;;;;;;-0.60;100.00;99692.82;5183303;54;1142892;-69
2022/12/11 18:40:28;;;;;;;187.10;69.93;;;;;;;-0.60;100.00;99694.12;5029809;56;1143154;-69
2022/12/11 18:45:35;;;;;;;36.67;15.93;;;;;;;-0.61;100.00;99691.98;5154418;55;1144603;-69
2022/12/11 18:50:49;;;;;;;27.87;14.80;;;;;;;-0.65;100.00;99686.56;5157022;55;1140931;-68
2022/12/11 18:55:54;;;;;;;;;;;;;;;-0.64;100.00;99689.55;5207416;55;1140875;-75
2022/12/11 19:00:59;;;;;;;38.80;19.13;;;;;;;-0.66;100.00;99689.22;5242751;54;974177;-73
2022/12/11 19:06:12;;;;;;;46.67;21.43;;;;;;;-0.72;100.00;99683.84;5145216;55;1138876;-69
2022/12/11 19:11:21;;;;;;;47.03;19.93;;;;;;;-0.81;100.00;99685.10;5120998;55;1141014;-73
2022/12/11 19:16:33;;;;;;;42.00;16.90;;;;;;;-0.81;100.00;99685.10;5137361;55;1140898;-71
2022/12/11 19:21:40;;;;;;;41.18;14.68;;;;;;;-0.87;100.00;99693.60;5125931;55;1140902;-68
2022/12/11 19:26:46;;;;;;;28.30;11.70;;;;;;;-0.94;100.00;99694.80;5134359;55;1140877;-72
2022/12/11 19:31:54;;;;;;;30.77;14.80;;;;;;;-1.00;100.00;99693.30;5184979;55;1140908;-71
2022/12/11 19:37:01;;;;;;;26.67;11.40;;;;;;;-1.04;100.00;99690.89;5138237;54;1141074;-70
2022/12/11 19:42:07;;;;;;;34.03;13.45;;;;;;;-1.10;100.00;99687.68;5157094;55;1140952;-68
2022/12/11 19:47:12;;;;;;;26.30;10.07;;;;;;;-1.16;100.00;99678.85;5179757;54;1140967;-74
2022/12/11 19:52:18;;;;;;;36.97;14.77;;;;;;;-1.18;100.00;99681.12;5159493;55;1140969;-71
2022/12/11 19:57:23;;;;;;;23.90;11.03;;;;;;;-1.25;100.00;99679.71;5183236;55;1140903;-67
2022/12/11 20:02:29;;;;;;;20.93;11.80;;;;;;;-1.28;100.00;99683.28;5185089;55;1140879;-69
2022/12/11 20:07:36;;;;;;;23.87;12.00;;;;;;;-1.25;100.00;99685.75;5193499;54;1141042;-70
2022/12/11 20:12:41;;;;;;;19.87;10.33;;;;;;;-1.24;100.00;99680.95;5242590;54;1140994;-70
2022/12/11 20:17:47;;;;;;;27.85;12.35;;;;;;;-1.28;100.00;99679.84;5196463;55;1140832;-70
2022/12/11 20:22:55;;;;;;;29.57;14.37;;;;;;;-1.34;100.00;99680.93;5178279;55;1140943;-72
2022/12/11 20:28:01;;;;;;;28.10;12.10;;;;;;;-1.34;100.00;99676.20;5106765;55;1140835;-71
2022/12/11 20:33:08;;;;;;;27.60;10.65;;;;;;;-1.36;100.00;99674.12;5124962;55;1140967;-70
2022/12/11 20:38:14;;;;;;;19.57;8.67;;;;;;;-1.39;100.00;99666.49;5219461;54;1140827;-72
2022/12/11 20:43:20;;;;;;;33.33;12.47;;;;;;;-1.43;100.00;99658.84;5179970;54;1138812;-74
2022/12/11 20:48:27;;;;;;;37.50;12.98;;;;;;;-1.45;100.00;99655.45;5193552;54;1140963;-68
2022/12/11 20:53:34;;;;;;;30.68;13.98;;;;;;;-1.48;100.00;99639.18;5214183;54;1140864;-68
2022/12/11 20:58:42;;;;;;;31.80;14.40;;;;;;;-1.49;100.00;99642.23;5180865;54;1140880;-70
2022/12/11 21:03:49;;;;;;;28.92;13.08;;;;;;;-1.47;100.00;99643.46;5219637;54;1140850;-71
2022/12/11 21:08:55;;;;;;;27.03;11.87;;;;;;;-1.44;100.00;99644.19;5209702;55;1140903;-72
2022/12/11 21:19:14;;;;;;;25.70;12.00;;;;;;;-1.37;100.00;99636.12;5228819;55;47545;-68
2022/12/11 21:24:26;;;;;;;23.23;10.10;;;;;;;-1.45;100.00;99636.02;4964108;57;1136722;-69
2022/12/11 21:29:32;;;;;;;18.10;9.08;;;;;;;-1.46;100.00;99634.33;5078553;56;1140891;-69
2022/12/11 21:34:38;;;;;;;26.37;10.20;;;;;;;-1.51;100.00;99631.07;4982932;57;1139077;-71
2022/12/11 21:39:44;;;;;;;35.73;13.40;;;;;;;-1.53;100.00;99631.59;5072375;56;1141012;-68
2022/12/11 21:44:50;;;;;;;23.27;10.90;;;;;;;-1.53;100.00;99634.66;5088376;56;1140931;-68
2022/12/11 21:49:55;;;;;;;33.08;12.13;;;;;;;-1.55;100.00;99639.07;5030984;56;1141037;-67
2022/12/11 21:55:01;;;;;;;23.87;11.87;;;;;;;-1.63;100.00;99634.19;5072100;56;1141189;-67
2022/12/11 22:00:08;;;;;;;27.17;12.05;;;;;;;-1.60;100.00;99633.22;5049911;56;1141008;-72
2022/12/11 22:05:17;;;;;;;38.73;20.10;;;;;;;-1.64;100.00;99629.91;4894892;57;1140897;-67
2022/12/11 22:10:23;;;;;;;27.40;12.23;;;;;;;-1.63;100.00;99642.42;4832685;58;1141012;-70
2022/12/11 22:15:28;;;;;;;32.57;13.90;;;;;;;-1.60;100.00;99636.66;4839499;58;1141218;-69
2022/12/11 22:20:34;;;;;;;43.33;15.93;;;;;;;-1.59;100.00;99641.39;4957090;57;1140855;-69
2022/12/11 22:25:41;;;;;;;46.70;17.33;;;;;;;-1.60;100.00;99630.18;4929408;57;1141041;-69
2022/12/11 22:30:47;;;;;;;27.40;13.40;;;;;;;-1.53;100.00;99635.96;4908814;57;1141021;-70
2022/12/11 22:35:57;;;;;;;34.73;15.10;;;;;;;-1.50;100.00;99628.03;4832627;58;1141066;-70
2022/12/11 22:41:16;;;;;;;42.77;19.23;;;;;;;-1.57;100.00;99641.72;4915137;57;1140945;-68
2022/12/11 22:46:25;;;;;;;29.30;12.73;;;;;;;-1.60;100.00;99635.36;4858415;57;1140852;-71
2022/12/11 22:51:31;;;;;;;22.93;11.33;;;;;;;-1.57;100.00;99626.63;4848643;57;1141575;-71
2022/12/11 22:56:37;;;;;;;26.27;12.03;;;;;;;-1.55;100.00;99628.70;4969781;57;1140902;-70
2022/12/11 23:01:44;;;;;;;26.43;12.60;;;;;;;-1.56;100.00;99638.68;5005708;56;1141081;-72
2022/12/11 23:06:50;;;;;;;19.87;10.03;;;;;;;-1.60;100.00;99639.25;5088926;55;1141147;-69
2022/12/11 23:11:57;;;;;;;19.75;10.15;;;;;;;-1.68;100.00;99634.02;5125794;55;1141033;-66